Time;durP1;ratioP1;P1;durP2;ratioP2;P2;SDS_P1;SDS_P2;PMS_P1;PMS_P2;Temp;Humidity;BMP_temperature;BMP_pressure;BME280_temperature;BME280_humidity;BME280_pressure;Samples;Min_cycle;Max_cycle;Signal;HPM_P1;HPM_P2
2023/05/23 00:00:41;;;;;;;;;26.00;20.00;;;;;17.06;92.77;101899.94;5046384;27;45476;-74
2023/05/23 00:03:07;;;;;;;;;22.00;18.67;;;;;17.01;91.82;101891.31;5022045;28;45321;-74
2023/05/23 00:05:33;;;;;;;;;23.00;23.00;;;;;17.05;90.61;101896.38;5025660;28;46159;-74
2023/05/23 00:07:59;;;;;;;;;22.67;18.67;;;;;16.91;90.23;101869.59;5038500;28;45461;-74
2023/05/23 00:10:25;;;;;;;;;26.67;20.67;;;;;16.98;92.52;101884.31;5028006;28;45352;-74
2023/05/23 00:12:51;;;;;;;;;21.33;20.67;;;;;17.01;90.46;101889.53;5022259;28;45565;-73
2023/05/23 00:15:16;;;;;;;;;22.67;20.00;;;;;16.99;90.30;101890.53;5043709;28;45403;-74
2023/05/23 00:17:43;;;;;;;;;19.00;18.00;;;;;16.99;90.73;101891.41;5074128;27;45240;-74
2023/05/23 00:20:10;;;;;;;;;23.00;22.00;;;;;16.97;90.52;101895.09;5028136;28;45370;-75
2023/05/23 00:22:41;;;;;;;;;23.00;23.00;;;;;16.96;90.05;101901.41;5032027;28;45278;-74
2023/05/23 00:25:08;;;;;;;;;23.33;22.00;;;;;16.90;90.06;101894.59;5034673;28;45189;-74
2023/05/23 00:27:34;;;;;;;;;18.00;18.00;;;;;16.91;91.63;101892.78;5013926;28;45290;-74
2023/05/23 00:29:59;;;;;;;;;22.33;21.33;;;;;16.85;89.94;101893.13;5054188;27;45490;-74
2023/05/23 00:32:25;;;;;;;;;22.67;21.00;;;;;16.71;91.56;101875.19;5020848;28;45444;-74
2023/05/23 00:34:53;;;;;;;;;25.33;21.33;;;;;16.81;92.37;101897.78;5026513;27;45423;-75
2023/05/23 00:37:19;;;;;;;;;27.67;22.67;;;;;16.67;90.76;101866.50;5031313;28;45442;-74
2023/05/23 00:39:44;;;;;;;;;32.67;27.00;;;;;16.65;90.38;101878.22;5023597;28;45381;-74
2023/05/23 00:42:10;;;;;;;;;23.33;21.00;;;;;16.71;89.16;101903.72;5040984;27;45435;-74
2023/05/23 00:44:36;;;;;;;;;20.00;19.00;;;;;16.62;91.09;101900.59;5036631;28;46165;-74
2023/05/23 00:47:01;;;;;;;;;21.33;21.33;;;;;16.57;91.71;101908.00;5023318;28;45403;-74
2023/05/23 00:49:27;;;;;;;;;23.00;22.33;;;;;16.55;90.95;101899.22;5031817;28;45257;-75
2023/05/23 00:51:52;;;;;;;;;25.00;23.33;;;;;16.49;90.44;101914.69;5036699;28;45518;-74
2023/05/23 00:54:24;;;;;;;;;27.50;25.50;;;;;16.43;92.00;101891.81;5019545;28;46098;-74
2023/05/23 00:56:50;;;;;;;;;24.00;21.00;;;;;16.42;93.60;101881.25;5038071;28;45381;-74
2023/05/23 00:59:15;;;;;;;;;25.67;23.33;;;;;16.39;92.39;101886.75;5024104;28;45293;-74
2023/05/23 01:01:45;;;;;;;;;29.75;29.25;;;;;16.36;92.07;101881.56;5091108;27;45391;-74
2023/05/23 01:04:12;;;;;;;;;27.00;26.00;;;;;16.34;92.03;101884.31;5069119;27;47579;-74
2023/05/23 01:06:37;;;;;;;;;28.00;23.25;;;;;16.32;93.54;101878.22;5023267;28;45371;-74
2023/05/23 01:09:03;;;;;;;;;29.00;25.25;;;;;16.33;94.39;101881.75;5028904;28;45612;-74
2023/05/23 01:11:39;;;;;;;;;32.00;25.75;;;;;16.29;93.01;101878.38;5035458;28;45544;-74
2023/05/23 01:14:11;;;;;;;;;31.00;28.33;;;;;16.29;93.01;101881.03;5016307;27;45779;-74
2023/05/23 01:16:52;;;;;;;;;25.00;22.33;;;;;16.29;94.06;101882.84;5027920;28;45468;-75
2023/05/23 01:19:28;;;;;;;;;35.75;27.00;;;;;16.28;93.80;101884.66;5015106;28;45426;-73
2023/05/23 01:21:55;;;;;;;;;26.00;24.25;;;;;16.22;94.23;101879.66;5040271;28;45256;-74
2023/05/23 01:24:35;;;;;;;;;28.75;28.25;;;;;16.22;93.52;101889.47;5030977;28;47210;-74
2023/05/23 01:27:06;;;;;;;;;31.50;26.75;;;;;16.17;93.00;101882.53;5034959;28;45213;-73
2023/05/23 01:29:37;;;;;;;;;28.25;27.25;;;;;16.11;94.44;101888.22;5027089;28;45333;-74
2023/05/23 01:32:06;;;;;;;;;36.00;28.25;;;;;16.00;95.89;101877.22;5045216;27;45252;-74
2023/05/23 01:34:34;;;;;;;;;31.25;24.50;;;;;16.06;93.78;101892.09;5036079;28;45375;-74
2023/05/23 01:37:00;;;;;;;;;28.00;26.25;;;;;15.94;96.81;101866.00;5032482;28;45434;-73
2023/05/23 01:39:25;;;;;;;;;31.33;24.33;;;;;16.08;96.17;101896.38;5033817;28;45349;-74
2023/05/23 01:41:52;;;;;;;;;30.75;29.25;;;;;16.11;96.63;101900.69;5033761;28;45234;-74
2023/05/23 01:44:19;;;;;;;;;32.50;27.75;;;;;15.98;95.37;101883.59;5031355;28;45257;-74
2023/05/23 01:46:46;;;;;;;;;30.75;28.75;;;;;15.99;95.85;101883.53;5050721;28;45290;-74
2023/05/23 01:49:14;;;;;;;;;29.25;26.50;;;;;15.96;96.45;101880.16;5038187;28;45309;-74
2023/05/23 01:51:40;;;;;;;;;31.25;28.25;;;;;15.97;95.88;101885.41;5047943;28;46092;-74
2023/05/23 01:54:06;;;;;;;;;30.75;28.25;;;;;16.03;96.12;101889.56;5041925;28;46581;-74
2023/05/23 01:56:32;;;;;;;;;31.75;27.50;;;;;16.05;98.03;101895.69;5046027;27;45260;-74
2023/05/23 01:58:58;;;;;;;;;27.75;27.00;;;;;15.95;97.25;101884.63;5036833;28;45419;-73
2023/05/23 02:01:24;;;;;;;;;28.00;26.33;;;;;15.85;96.21;101871.84;5025706;28;45232;-74
2023/05/23 02:03:49;;;;;;;;;31.25;26.50;;;;;15.95;96.72;101889.97;5066323;27;46011;-74
2023/05/23 02:06:14;;;;;;;;;30.50;26.25;;;;;15.89;96.99;101894.75;5044243;27;45387;-73
2023/05/23 02:08:40;;;;;;;;;24.00;23.67;;;;;15.83;96.66;101892.41;5041713;28;45532;-73
2023/05/23 02:11:07;;;;;;;;;25.50;21.75;;;;;15.83;97.99;101903.94;5037956;28;45396;-74
2023/05/23 02:13:33;;;;;;;;;30.33;23.00;;;;;15.79;97.95;101902.38;5013204;28;47481;-73
2023/05/23 02:15:58;;;;;;;;;29.00;22.33;;;;;15.82;98.07;101901.34;5031591;28;45296;-73
2023/05/23 02:18:25;;;;;;;;;30.33;28.67;;;;;15.79;98.51;101889.03;5029802;27;45648;-73
2023/05/23 02:20:50;;;;;;;;;30.00;26.75;;;;;15.70;98.88;101881.50;5032051;28;45392;-73
2023/05/23 02:23:16;;;;;;;;;31.25;29.00;;;;;15.80;99.67;101889.91;5023889;28;47906;-73
2023/05/23 02:25:41;;;;;;;;;35.25;30.75;;;;;15.79;99.48;101898.84;5028526;28;45315;-73
2023/05/23 02:28:06;;;;;;;;;31.00;29.75;;;;;15.79;99.19;101904.16;5030882;28;45435;-73
2023/05/23 02:30:32;;;;;;;;;26.00;23.33;;;;;15.65;97.24;101899.53;5036288;28;45426;-74
2023/05/23 02:32:57;;;;;;;;;28.00;24.67;;;;;15.70;96.87;101917.97;5023037;28;48371;-73
2023/05/23 02:35:22;;;;;;;;;25.00;23.67;;;;;15.63;98.62;101909.44;5038706;28;45257;-73
2023/05/23 02:37:48;;;;;;;;;23.00;20.33;;;;;15.65;98.14;101899.53;5035433;28;45623;-73
2023/05/23 02:40:13;;;;;;;;;23.33;23.33;;;;;15.63;99.05;101901.44;5029978;28;45411;-73
2023/05/23 02:42:39;;;;;;;;;29.33;24.00;;;;;15.62;99.55;101913.03;5039751;28;45608;-74
2023/05/23 02:45:05;;;;;;;;;33.50;26.75;;;;;15.57;99.41;101905.25;5036848;28;45432;-74
2023/05/23 02:47:30;;;;;;;;;35.75;30.00;;;;;15.55;99.55;101923.13;5020470;28;45401;-74
2023/05/23 02:49:55;;;;;;;;;26.50;26.50;;;;;15.53;99.51;101925.03;5045300;28;45375;-74
2023/05/23 02:52:21;;;;;;;;;33.25;29.50;;;;;15.49;99.94;101914.59;5037787;28;45414;-74
2023/05/23 02:54:46;;;;;;;;;33.00;27.25;;;;;15.48;99.48;101923.50;5036417;28;45395;-74
2023/05/23 02:57:11;;;;;;;;;27.33;23.33;;;;;15.51;100.00;101931.38;5034118;28;45446;-74
2023/05/23 02:59:37;;;;;;;;;25.00;22.25;;;;;15.49;100.00;101927.91;5036628;28;45601;-74
2023/05/23 03:02:02;;;;;;;;;28.75;26.50;;;;;15.43;98.97;101923.72;5041929;28;45398;-74
2023/05/23 03:04:28;;;;;;;;;29.50;25.00;;;;;15.36;99.36;101929.44;5045231;28;45381;-74
2023/05/23 03:06:54;;;;;;;;;32.00;25.00;;;;;15.32;100.00;101935.84;5028064;28;45493;-74
2023/05/23 03:09:19;;;;;;;;;33.00;29.00;;;;;15.28;100.00;101937.78;5064618;27;45494;-73
2023/05/23 03:11:45;;;;;;;;;28.50;27.50;;;;;15.22;100.00;101927.44;5036228;27;46004;-74
2023/05/23 03:14:10;;;;;;;;;31.50;28.50;;;;;15.18;100.00;101925.88;5024896;28;45320;-74
2023/05/23 03:16:36;;;;;;;;;30.25;27.25;;;;;15.16;100.00;101922.41;5027207;28;46025;-74
2023/05/23 03:19:04;;;;;;;;;24.00;20.75;;;;;14.85;100.00;101891.06;5144235;22;45452;-79
2023/05/23 03:21:31;;;;;;;;;34.50;31.50;;;;;15.07;100.00;101942.38;5076753;27;45565;-81
2023/05/23 03:24:13;;;;;;;;;31.75;27.25;;;;;14.46;100.00;101845.84;5062997;28;45245;-80
2023/05/23 03:26:38;;;;;;;;;30.00;24.75;;;;;14.80;100.00;101902.84;5075101;28;45515;-80
2023/05/23 03:29:04;;;;;;;;;30.75;28.00;;;;;14.55;100.00;101871.19;5077722;28;45531;-81
2023/05/23 03:31:29;;;;;;;;;27.50;26.75;;;;;14.96;100.00;101957.13;5078478;27;46097;-82
2023/05/23 03:33:54;;;;;;;;;30.00;26.00;;;;;14.64;100.00;101896.50;5079520;28;45294;-81
2023/05/23 03:36:24;;;;;;;;;37.00;30.25;;;;;14.37;100.00;101861.38;5076751;28;45384;-81
2023/05/23 03:38:51;;;;;;;;;33.00;29.00;;;;;14.52;100.00;101908.59;5080709;27;45312;-82
2023/05/23 03:41:17;;;;;;;;;26.75;26.75;;;;;14.53;100.00;101894.31;5079142;27;45503;-81
2023/05/23 03:43:42;;;;;;;;;32.00;29.50;;;;;14.41;100.00;101873.59;5074612;28;45421;-81
2023/05/23 03:46:08;;;;;;;;;29.00;26.75;;;;;14.58;100.00;101922.50;5077892;28;45560;-81
2023/05/23 03:48:33;;;;;;;;;34.00;26.50;;;;;14.80;100.00;101956.09;5078483;28;45518;-82
2023/05/23 03:50:59;;;;;;;;;38.00;30.00;;;;;14.27;100.00;101868.00;5074956;28;46798;-81
2023/05/23 03:53:27;;;;;;;;;36.25;32.00;;;;;14.30;100.00;101874.06;5078455;27;45462;-81
2023/05/23 03:55:55;;;;;;;;;29.00;25.25;;;;;14.60;100.00;101933.06;5076772;28;45387;-80
2023/05/23 03:58:21;;;;;;;;;27.50;25.25;;;;;14.37;100.00;101883.53;5067975;28;45391;-81
2023/05/23 04:00:49;;;;;;;;;33.25;32.00;;;;;14.66;100.00;101938.09;5073119;28;45417;-81
2023/05/23 04:03:16;;;;;;;;;35.75;29.00;;;;;14.22;100.00;101875.34;5072315;27;45332;-79
2023/05/23 04:05:56;;;;;;;;;31.00;25.50;;;;;14.57;100.00;101925.22;5068641;28;45527;-80
2023/05/23 04:08:21;;;;;;;;;33.50;28.25;;;;;14.19;100.00;101873.69;5078492;28;45308;-80
2023/05/23 04:10:50;;;;;;;;;30.50;25.75;;;;;14.49;100.00;101914.94;5069336;28;46447;-80
2023/05/23 04:13:16;;;;;;;;;24.00;22.50;;;;;14.35;100.00;101904.03;5077323;28;45316;-80
2023/05/23 04:15:46;;;;;;;;;28.50;26.25;;;;;14.43;100.00;101954.28;5077999;27;45357;-80
2023/05/23 04:18:16;;;;;;;;;31.50;24.50;;;;;14.39;100.00;101934.91;5079196;27;45368;-81
2023/05/23 04:20:43;;;;;;;;;30.75;26.25;;;;;14.05;100.00;101889.41;5076221;28;47052;-81
2023/05/23 04:23:14;;;;;;;;;33.00;26.25;;;;;14.10;100.00;101909.53;5070363;28;45489;-81
2023/05/23 04:25:40;;;;;;;;;26.50;24.00;;;;;14.52;100.00;101972.50;5076882;28;45331;-80
2023/05/23 04:28:47;;;;;;;;;23.00;23.00;;;;;14.22;100.00;101918.78;5078592;28;45984;-80
2023/05/23 04:31:16;;;;;;;;;18.00;16.00;;;;;14.17;100.00;101904.81;5079351;27;46603;-81
2023/05/23 04:33:56;;;;;;;;;27.25;26.50;;;;;14.04;100.00;101895.63;5065950;28;45551;-80
2023/05/23 04:39:51;;;;;;;;;23.00;19.67;;;;;14.52;100.00;101984.00;5077843;28;45453;-80
2023/05/23 04:42:24;;;;;;;;;26.00;19.33;;;;;14.23;100.00;101948.94;5065068;28;45623;-80
2023/05/23 04:44:56;;;;;;;;;24.33;19.00;;;;;14.12;100.00;101913.94;5071375;28;45534;-79
2023/05/23 04:47:34;;;;;;;;;24.25;24.00;;;;;14.44;100.00;101994.13;5073189;28;45475;-79
2023/05/23 04:50:05;;;;;;;;;26.00;22.25;;;;;14.54;100.00;101986.59;5086835;27;45511;-80
2023/05/23 04:52:46;;;;;;;;;22.67;17.67;;;;;14.05;100.00;101918.66;5076679;28;45545;-80
2023/05/23 04:55:12;;;;;;;;;25.00;22.00;;;;;14.42;100.00;101956.06;5075651;28;45551;-79
2023/05/23 04:57:40;;;;;;;;;20.33;19.67;;;;;14.17;100.00;101914.63;5073614;28;45352;-78
2023/05/23 05:00:13;;;;;;;;;20.67;19.67;;;;;14.14;100.00;101915.59;5084396;27;45276;-80
2023/05/23 05:02:43;;;;;;;;;22.00;19.00;;;;;14.19;100.00;101932.22;5085780;27;47720;-79
2023/05/23 05:05:13;;;;;;;;;22.33;22.33;;;;;14.22;100.00;101928.56;5063757;28;45438;-80
2023/05/23 05:07:52;;;;;;;;;21.33;19.00;;;;;14.67;100.00;102005.53;5072726;28;45299;-80
2023/05/23 05:10:18;;;;;;;;;19.00;19.00;;;;;14.47;100.00;101959.38;5068265;28;45489;-79
2023/05/23 05:12:51;;;;;;;;;17.33;16.67;;;;;14.56;100.00;101968.75;5078532;27;47882;-81
2023/05/23 05:15:17;;;;;;;;;23.67;21.67;;;;;14.68;100.00;101972.66;5066704;27;45458;-79
2023/05/23 05:17:46;;;;;;;;;23.67;21.00;;;;;14.52;100.00;101957.38;5076047;27;45379;-80
2023/05/23 05:20:16;;;;;;;;;22.00;19.00;;;;;14.26;100.00;101920.38;5077064;28;45504;-84
2023/05/23 05:22:43;;;;;;;;;22.67;21.00;;;;;14.78;100.00;102012.13;5077077;28;47253;-84
2023/05/23 05:25:14;;;;;;;;;15.67;15.67;;;;;14.38;100.00;101916.34;5076017;28;45299;-83
2023/05/23 05:27:41;;;;;;;;;22.33;17.33;;;;;14.27;100.00;101906.13;5079185;28;45659;-84
2023/05/23 05:30:12;;;;;;;;;15.67;14.00;;;;;14.30;100.00;101905.16;5077911;28;45317;-84
2023/05/23 05:32:40;;;;;;;;;17.33;16.33;;;;;14.29;100.00;101906.06;5074392;27;47514;-84
2023/05/23 05:35:18;;;;;;;;;21.33;18.00;;;;;14.57;100.00;101951.84;5076802;28;45375;-84
2023/05/23 05:37:57;;;;;;;;;17.33;14.67;;;;;14.79;100.00;102007.66;5079306;27;45308;-83
2023/05/23 05:40:33;;;;;;;;;18.67;14.67;;;;;14.41;100.00;101958.78;5073837;28;45462;-82
2023/05/23 05:42:59;;;;;;;;;16.67;16.33;;;;;14.39;100.00;101928.72;5076388;27;45512;-83
2023/05/23 05:45:25;;;;;;;;;18.33;17.00;;;;;14.25;100.00;101915.13;5074456;28;45882;-84
2023/05/23 05:47:54;;;;;;;;;18.67;17.00;;;;;14.64;100.00;101976.38;5088452;27;45323;-81
2023/05/23 05:50:19;;;;;;;;;20.00;19.00;;;;;14.36;100.00;101936.84;5076135;28;45489;-82
2023/05/23 05:52:45;;;;;;;;;20.33;15.67;;;;;14.77;100.00;102014.84;5077585;28;45642;-80
2023/05/23 05:55:14;;;;;;;;;22.33;17.33;;;;;14.20;100.00;101917.97;5076824;28;45696;-82
2023/05/23 05:57:41;;;;;;;;;20.00;17.00;;;;;14.38;100.00;101950.94;5068531;28;45419;-84
2023/05/23 06:00:11;;;;;;;;;19.33;19.33;;;;;14.69;100.00;102001.84;5068297;28;45693;-83
2023/05/23 06:02:41;;;;;;;;;20.00;17.67;;;;;14.33;100.00;101959.09;5077612;27;45502;-84
2023/05/23 06:05:11;;;;;;;;;18.00;15.67;;;;;14.45;100.00;101995.84;5077915;27;45594;-81
2023/05/23 06:07:41;;;;;;;;;17.00;17.00;;;;;14.28;100.00;101970.88;5075658;28;45442;-84
2023/05/23 06:10:15;;;;;;;;;15.00;15.00;;;;;14.69;100.00;102015.16;5066259;27;45533;-80
2023/05/23 06:12:51;;;;;;;;;19.00;16.00;;;;;14.18;100.00;101942.94;5073125;27;47208;-75
2023/05/23 06:15:20;;;;;;;;;18.00;16.67;;;;;14.21;100.00;101945.44;5072995;28;45489;-75
2023/05/23 06:17:46;;;;;;;;;19.67;17.33;;;;;14.35;100.00;101975.91;5077581;28;45410;-75
2023/05/23 06:20:12;;;;;;;;;19.67;18.00;;;;;14.74;100.00;102037.16;5078959;28;45532;-76
2023/05/23 06:22:53;;;;;;;;;19.33;15.33;;;;;14.66;100.00;102010.00;5081391;27;46892;-76
2023/05/23 06:25:24;;;;;;;;;24.33;18.00;;;;;14.46;100.00;101981.59;5078342;28;45334;-77
2023/05/23 06:27:50;;;;;;;;;24.00;20.00;;;;;14.28;100.00;101939.81;5074376;27;45399;-76
2023/05/23 06:30:28;;;;;;;;;12.33;10.00;;;;;14.56;100.00;101996.22;5092621;27;45557;-75
2023/05/23 06:33:05;;;;;;;;;19.67;18.00;;;;;14.20;100.00;101933.94;5078538;27;46191;-75
2023/05/23 06:35:30;;;;;;;;;21.33;21.33;;;;;14.78;100.00;102040.53;5069264;28;45428;-76
2023/05/23 06:37:57;;;;;;;;;18.50;17.75;;;;;14.46;100.00;101996.72;5069963;28;45432;-74
2023/05/23 06:40:23;;;;;;;;;20.75;20.75;;;;;14.49;100.00;101986.81;5078615;27;45536;-75
2023/05/23 06:42:48;;;;;;;;;19.00;18.25;;;;;14.36;100.00;101966.13;5069113;27;46283;-75
2023/05/23 06:45:16;;;;;;;;;18.33;17.33;;;;;14.64;100.00;102024.31;5076469;28;45505;-79
2023/05/23 06:47:44;;;;;;;;;21.67;20.33;;;;;14.86;100.00;102043.72;5078326;27;45503;-80
2023/05/23 06:50:10;;;;;;;;;29.50;24.25;;;;;14.40;100.00;101970.34;5070061;28;45572;-78
2023/05/23 06:52:35;;;;;;;;;18.67;17.33;;;;;14.90;100.00;102056.84;5080402;28;45440;-79
2023/05/23 06:55:01;;;;;;;;;22.00;17.33;;;;;14.87;100.00;102027.69;5078418;28;45506;-78
2023/05/23 06:57:27;;;;;;;;;24.67;20.00;;;;;14.52;100.00;101983.13;5078219;28;45391;-79
2023/05/23 06:59:54;;;;;;;;;24.50;21.75;;;;;14.67;100.00;102000.22;5081855;28;45578;-79
2023/05/23 07:02:20;;;;;;;;;22.00;19.33;;;;;14.99;100.00;102068.88;5081310;28;46184;-79
2023/05/23 07:04:45;;;;;;;;;21.33;19.67;;;;;14.57;100.00;102000.63;5077662;28;45374;-80
2023/05/23 07:07:12;;;;;;;;;19.00;18.33;;;;;14.90;100.00;102058.63;5067242;28;45405;-79
2023/05/23 07:09:38;;;;;;;;;20.33;18.67;;;;;14.75;100.00;102006.94;5075982;28;45700;-79
2023/05/23 07:12:04;;;;;;;;;25.67;18.67;;;;;14.94;100.00;102049.56;5078562;27;45278;-80
2023/05/23 07:14:30;;;;;;;;;30.67;25.00;;;;;14.83;100.00;102014.56;5070571;28;45333;-79
2023/05/23 07:16:55;;;;;;;;;32.00;23.50;;;;;14.80;100.00;101988.94;5065095;27;45539;-80
2023/05/23 07:19:20;;;;;;;;;21.33;19.00;;;;;15.16;100.00;102046.78;5068162;28;45665;-79
2023/05/23 07:21:46;;;;;;;;;20.00;17.00;;;;;14.73;100.00;101975.97;5078777;28;46428;-79
2023/05/23 07:24:14;;;;;;;;;17.33;15.67;;;;;15.00;100.00;102039.50;5079477;28;45363;-79
2023/05/23 07:26:39;;;;;;;;;21.00;17.33;;;;;14.87;100.00;102022.34;5080398;27;45362;-80
2023/05/23 07:29:05;;;;;;;;;17.33;15.00;;;;;15.03;100.00;102015.38;5071529;27;45482;-79
2023/05/23 07:31:31;;;;;;;;;16.33;16.33;;;;;15.22;100.00;102046.50;5073758;28;45394;-80
2023/05/23 07:34:04;;;;;;;;;18.00;15.33;;;;;14.96;100.00;102013.94;5069377;28;45343;-79
2023/05/23 07:36:34;;;;;;;;;22.00;18.33;;;;;15.01;100.00;102030.59;5065321;28;45427;-80
2023/05/23 07:39:00;;;;;;;;;18.33;16.67;;;;;15.36;100.00;102073.38;5080539;27;45395;-82
2023/05/23 07:41:25;;;;;;;;;19.67;16.00;;;;;15.40;100.00;102074.97;5075268;28;47058;-79
2023/05/23 07:43:58;;;;;;;;;16.33;16.33;;;;;15.29;100.00;102077.25;5074168;28;45543;-79
2023/05/23 07:46:26;;;;;;;;;17.33;14.00;;;;;15.02;100.00;102029.63;5066858;27;45387;-79
2023/05/23 07:48:56;;;;;;;;;19.00;16.67;;;;;14.94;100.00;102020.28;5075433;28;45482;-79
2023/05/23 07:51:21;;;;;;;;;12.33;11.33;;;;;14.97;100.00;102018.34;5072834;28;45656;-79
2023/05/23 07:53:47;;;;;;;;;19.00;15.00;;;;;15.11;100.00;102057.66;5070534;28;45304;-80
2023/05/23 07:56:17;;;;;;;;;16.00;16.00;;;;;15.03;100.00;102031.38;5065009;28;45360;-79
2023/05/23 07:58:43;;;;;;;;;23.67;19.67;;;;;15.15;100.00;102047.75;5078933;27;45532;-80
2023/05/23 08:01:12;;;;;;;;;18.33;15.67;;;;;15.08;100.00;102025.84;5078427;28;47206;-79
2023/05/23 08:03:42;;;;;;;;;22.00;18.00;;;;;15.51;100.00;102110.88;5079981;27;45386;-79
2023/05/23 08:06:08;;;;;;;;;22.00;19.00;;;;;15.13;100.00;102051.31;5064855;28;45490;-79
2023/05/23 08:08:42;;;;;;;;;20.67;19.33;;;;;15.24;100.00;102084.63;5074794;28;45522;-79
2023/05/23 08:11:15;;;;;;;;;19.00;17.33;;;;;15.12;100.00;102056.72;5070495;28;45683;-79
2023/05/23 08:13:45;;;;;;;;;18.67;16.67;;;;;15.16;100.00;102062.75;5075147;28;45384;-79
2023/05/23 08:16:11;;;;;;;;;19.00;15.67;;;;;15.43;100.00;102106.81;5061112;28;45344;-79
2023/05/23 08:18:39;;;;;;;;;19.67;18.00;;;;;15.27;100.00;102073.81;5079730;27;45338;-79
2023/05/23 08:21:16;;;;;;;;;23.33;19.67;;;;;15.11;100.00;102057.66;5077845;28;46322;-79
2023/05/23 08:23:42;;;;;;;;;18.00;18.00;;;;;15.32;100.00;102071.78;5077980;28;45461;-79
2023/05/23 08:26:07;;;;;;;;;27.33;20.67;;;;;15.18;100.00;102042.25;5064430;28;45456;-80
2023/05/23 08:28:45;;;;;;;;;21.67;19.00;;;;;15.29;100.00;102078.13;5066518;28;45321;-79
2023/05/23 08:31:10;;;;;;;;;20.33;19.33;;;;;15.33;100.00;102070.84;5066303;28;45455;-79
2023/05/23 08:33:36;;;;;;;;;23.67;22.00;;;;;15.07;100.00;102019.63;5068612;28;45259;-80
2023/05/23 08:36:02;;;;;;;;;24.00;22.67;;;;;15.17;100.00;102051.19;5082805;27;45314;-79
2023/05/23 08:38:32;;;;;;;;;26.67;22.67;;;;;15.31;100.00;102065.63;5076442;27;45267;-79
2023/05/23 08:41:03;;;;;;;;;25.25;23.50;;;;;15.35;100.00;102068.97;5067074;28;46635;-79
2023/05/23 08:43:33;;;;;;;;;29.50;28.25;;;;;15.33;100.00;102078.84;5069026;28;45611;-79
2023/05/23 08:46:06;;;;;;;;;33.00;28.50;;;;;15.35;100.00;102072.50;5079614;27;45492;-79
2023/05/23 08:48:36;;;;;;;;;35.25;27.25;;;;;15.51;100.00;102099.38;5075316;28;45463;-80
2023/05/23 08:51:03;;;;;;;;;30.50;28.50;;;;;15.56;100.00;102092.88;5064684;28;47030;-79
2023/05/23 08:53:31;;;;;;;;;23.33;22.00;;;;;15.72;100.00;102109.00;5076934;28;45372;-79
2023/05/23 08:56:01;;;;;;;;;28.00;23.50;;;;;15.35;100.00;102034.31;5067927;28;45415;-79
2023/05/23 08:58:30;;;;;;;;;23.33;22.33;;;;;15.34;100.00;102045.94;5075486;27;45494;-79
2023/05/23 09:01:00;;;;;;;;;25.67;22.00;;;;;15.45;100.00;102062.28;5074297;28;45637;-80
2023/05/23 09:03:26;;;;;;;;;25.00;21.00;;;;;15.87;100.00;102124.25;5062856;28;45374;-79
2023/05/23 09:05:59;;;;;;;;;21.33;19.67;;;;;15.45;100.00;102054.28;5077471;28;45391;-77
2023/05/23 09:08:45;;;;;;;;;22.00;20.33;;;;;15.45;100.00;102056.94;5073741;27;45464;-79
2023/05/23 09:11:12;;;;;;;;;24.67;22.67;;;;;15.54;100.00;102069.91;5073589;28;45627;-79
2023/05/23 09:13:40;;;;;;;;;24.67;19.67;;;;;15.40;100.00;102067.84;5070474;27;45340;-78
2023/05/23 09:16:11;;;;;;;;;25.67;23.33;;;;;15.34;100.00;102049.47;5072377;28;45472;-79
2023/05/23 09:18:39;;;;;;;;;19.00;19.00;;;;;15.34;100.00;102056.59;5068156;28;45374;-79
2023/05/23 09:21:05;;;;;;;;;18.33;18.33;;;;;15.67;100.00;102094.16;5063340;28;46889;-79
2023/05/23 09:23:34;;;;;;;;;27.33;23.33;;;;;15.54;100.00;102078.72;5069015;27;45256;-79
2023/05/23 09:26:04;;;;;;;;;18.00;18.00;;;;;15.44;100.00;102052.56;5077860;27;45420;-79
2023/05/23 09:28:44;;;;;;;;;21.67;21.67;;;;;15.42;100.00;102057.09;5074043;28;46269;-79
2023/05/23 09:31:13;;;;;;;;;22.33;21.00;;;;;15.74;100.00;102133.78;5078167;28;45452;-79
2023/05/23 09:33:44;;;;;;;;;23.00;19.00;;;;;15.61;100.00;102111.31;5077222;28;45410;-79
2023/05/23 09:36:12;;;;;;;;;21.75;17.00;;;;;15.40;100.00;102074.97;5077013;28;45457;-79
2023/05/23 09:38:41;;;;;;;;;32.33;22.67;;;;;15.38;100.00;102061.69;5062345;28;45971;-80
2023/05/23 09:41:07;;;;;;;;;30.00;24.67;;;;;15.69;100.00;102127.81;5065607;28;47009;-80
2023/05/23 09:43:55;;;;;;;;;29.33;24.33;;;;;15.90;100.00;102149.97;5067820;28;45453;-79
2023/05/23 09:46:29;;;;;;;;;23.00;21.00;;;;;15.97;100.00;102159.38;5065206;28;45406;-79
2023/05/23 09:48:55;;;;;;;;;25.67;24.00;;;;;15.71;100.00;102090.41;5074823;28;45465;-79
2023/05/23 09:51:22;;;;;;;;;29.33;24.00;;;;;15.77;100.00;102053.63;5077043;28;45568;-79
2023/05/23 09:53:54;;;;;;;;;27.33;24.33;;;;;15.95;100.00;102060.75;5097972;27;45222;-79
2023/05/23 09:56:23;;;;;;;;;22.33;22.00;;;;;16.25;99.27;102087.72;5067151;27;45287;-79
2023/05/23 09:59:00;;;;;;;;;26.67;21.00;;;;;16.58;98.83;102135.91;5068480;27;45606;-80
2023/05/23 10:01:34;;;;;;;;;26.75;21.25;;;;;16.18;98.35;102056.91;5060854;28;48100;-80
2023/05/23 10:04:02;;;;;;;;;26.00;24.33;;;;;16.41;94.73;102114.50;5071980;28;45296;-79
2023/05/23 10:06:36;;;;;;;;;23.33;22.33;;;;;16.47;95.81;102132.88;5075571;28;45380;-79
2023/05/23 10:09:08;;;;;;;;;24.67;19.00;;;;;16.02;98.47;102070.16;5062009;28;45557;-79
2023/05/23 10:11:37;;;;;;;;;22.33;20.00;;;;;16.40;97.89;102144.78;5081413;28;45687;-79
2023/05/23 10:14:10;;;;;;;;;24.67;22.67;;;;;16.37;97.67;102151.16;5072381;28;45738;-80
2023/05/23 10:16:56;;;;;;;;;25.67;22.67;;;;;16.05;97.28;102114.53;5080817;28;45308;-80
2023/05/23 10:19:48;;;;;;;;;21.00;21.00;;;;;15.97;98.23;102106.88;5069116;27;45339;-80
2023/05/23 10:22:24;;;;;;;;;27.33;24.67;;;;;15.76;99.33;102081.25;5083356;27;47568;-79
2023/05/23 10:24:54;;;;;;;;;25.33;22.67;;;;;16.03;99.36;102148.44;5066373;28;45344;-81
2023/05/23 10:27:20;;;;;;;;;25.67;24.67;;;;;15.53;99.44;102076.16;5067255;28;45355;-79
2023/05/23 10:29:47;;;;;;;;;25.33;24.33;;;;;15.86;100.00;102113.69;5059767;28;45238;-79
2023/05/23 10:32:15;;;;;;;;;26.67;21.67;;;;;15.82;98.53;102101.44;5061818;28;45473;-79
2023/05/23 10:34:55;;;;;;;;;21.67;21.67;;;;;15.61;96.62;102049.97;5079630;28;45369;-80
2023/05/23 10:37:49;;;;;;;;;23.00;19.67;;;;;16.35;94.18;102139.72;5066069;28;45412;-79
2023/05/23 10:40:54;;;;;;;;;22.00;18.33;;;;;16.50;94.29;102143.41;5065972;28;45451;-80
2023/05/23 10:43:25;;;;;;;;;21.00;19.33;;;;;16.56;93.25;102169.81;5038251;28;47568;-80
2023/05/23 10:45:51;;;;;;;;;22.33;17.33;;;;;16.51;96.28;102137.13;5074730;28;45258;-79
2023/05/23 10:48:30;;;;;;;;;20.33;16.00;;;;;16.36;93.01;102085.34;5076613;28;45576;-79
2023/05/23 10:51:03;;;;;;;;;18.33;17.33;;;;;16.47;90.71;102099.03;5059264;28;45563;-82
2023/05/23 10:53:33;;;;;;;;;17.33;16.00;;;;;16.59;90.05;102117.13;5063509;28;45426;-79
2023/05/23 10:55:58;;;;;;;;;18.00;17.67;;;;;16.21;91.46;102045.22;5069676;28;45458;-80
2023/05/23 10:58:27;;;;;;;;;21.67;21.00;;;;;16.56;89.27;102125.28;5081005;27;45303;-79
2023/05/23 11:01:07;;;;;;;;;20.67;17.33;;;;;16.84;91.68;102163.97;5079258;28;45477;-81
2023/05/23 11:03:53;;;;;;;;;23.00;20.33;;;;;16.53;89.96;102088.03;5074231;27;46884;-80
2023/05/23 11:06:43;;;;;;;;;19.67;18.00;;;;;17.00;87.47;102135.50;5074613;28;45421;-79
2023/05/23 11:09:20;;;;;;;;;22.67;19.33;;;;;17.10;87.60;102144.75;5068620;28;45389;-79
2023/05/23 11:12:06;;;;;;;;;20.67;19.00;;;;;17.00;87.42;102112.31;5078698;28;45475;-79
2023/05/23 11:14:33;;;;;;;;;24.00;21.00;;;;;17.16;86.40;102117.69;5091695;27;47687;-80
2023/05/23 11:17:13;;;;;;;;;14.67;14.33;;;;;16.95;85.54;102071.56;5080842;27;45465;-79
2023/05/23 11:19:51;;;;;;;;;;;;;;;;;;;;;